createdAt,value
2023-08-02T00:01:53.545Z,99651.25
2023-08-02T00:04:21.056Z,99637.69
2023-08-02T00:06:48.322Z,99638.22
2023-08-02T00:09:15.412Z,99642.56
2023-08-02T00:11:42.384Z,99633.34
2023-08-02T00:14:09.309Z,99641.47
2023-08-02T00:16:36.379Z,99653.13
2023-08-02T00:19:04.313Z,99650.44
2023-08-02T00:21:31.696Z,99663.47
2023-08-02T00:23:58.716Z,99648.53
2023-08-02T00:26:25.717Z,99645.81
2023-08-02T00:28:52.647Z,99642.28
2023-08-02T00:31:19.974Z,99643.94
2023-08-02T00:33:47.108Z,99652.63
2023-08-02T00:36:14.149Z,99657.53
2023-08-02T00:38:41.220Z,99644.53
2023-08-02T00:41:08.452Z,99640.19
2023-08-02T00:43:46.489Z,99638.56
2023-08-02T00:46:20.413Z,99628.50
2023-08-02T00:48:48.757Z,99631.75
2023-08-02T00:51:17.049Z,99629.03
2023-08-02T00:53:48.022Z,99624.72
2023-08-02T00:56:18.761Z,99636.94
2023-08-02T00:58:45.885Z,99634.78
2023-08-02T01:01:13.033Z,99640.22
2023-08-02T01:03:45.930Z,99636.13
2023-08-02T01:06:31.536Z,99628.25
2023-08-02T01:09:43.196Z,99618.22
2023-08-02T01:12:12.768Z,99624.72
2023-08-02T01:15:18.143Z,99619.03
2023-08-02T01:17:45.400Z,99624.22
2023-08-02T01:20:12.700Z,99626.66
2023-08-02T01:22:39.683Z,99625.59
2023-08-02T01:25:07.319Z,99617.94
2023-08-02T01:27:43.529Z,99619.59
2023-08-02T01:30:16.144Z,99621.78
2023-08-02T01:32:43.857Z,99617.44
2023-08-02T01:35:11.309Z,99617.44
2023-08-02T01:37:38.527Z,99619.06
2023-08-02T01:40:05.942Z,99618.53
2023-08-02T01:42:33.668Z,99614.22
2023-08-02T01:45:00.734Z,99615.59
2023-08-02T01:47:27.822Z,99612.59
2023-08-02T01:49:54.856Z,99606.94
2023-08-02T01:52:21.938Z,99591.75
2023-08-02T01:54:48.906Z,99592.00
2023-08-02T01:57:15.966Z,99599.59
2023-08-02T01:59:43.320Z,99607.19
2023-08-02T02:02:10.434Z,99602.03
2023-08-02T02:04:37.520Z,99600.69
2023-08-02T02:07:04.804Z,99598.25
2023-08-02T02:09:31.715Z,99576.84
2023-08-02T02:11:58.663Z,99580.13
2023-08-02T02:14:25.937Z,99566.81
2023-08-02T02:16:53.538Z,99566.31
2023-08-02T02:19:20.691Z,99573.91
2023-08-02T02:21:48.212Z,99575.81
2023-08-02T02:24:15.163Z,99582.59
2023-08-02T02:26:42.260Z,99578.53
2023-08-02T02:29:09.431Z,99581.22
2023-08-02T02:31:36.451Z,99579.88
2023-08-02T02:34:04.309Z,99576.38
2023-08-02T02:36:31.444Z,99584.50
2023-08-02T02:38:58.472Z,99589.13
2023-08-02T02:41:25.683Z,99584.50
2023-08-02T02:43:52.986Z,99588.03
2023-08-02T02:46:20.005Z,99593.47
2023-08-02T02:48:47.955Z,99586.69
2023-08-02T02:51:14.943Z,99584.84
2023-08-02T02:53:41.939Z,99585.66
2023-08-02T02:56:08.900Z,99585.09
2023-08-02T02:58:35.855Z,99581.03
2023-08-02T03:01:02.963Z,99576.94
2023-08-02T03:03:29.918Z,99578.56
2023-08-02T03:05:57.008Z,99576.69
2023-08-02T03:08:23.972Z,99574.78
2023-08-02T03:10:57.829Z,99576.97
2023-08-02T03:13:24.789Z,99580.78
2023-08-02T03:15:51.709Z,99579.69
2023-08-02T03:18:18.851Z,99576.72
2023-08-02T03:20:46.104Z,99578.09
2023-08-02T03:23:13.194Z,99576.44
2023-08-02T03:25:40.162Z,99579.16
2023-08-02T03:28:07.153Z,99579.97
2023-08-02T03:30:35.453Z,99580.50
2023-08-02T03:33:02.611Z,99579.69
2023-08-02T03:35:29.567Z,99577.00
2023-08-02T03:37:56.512Z,99569.09
2023-08-02T03:40:24.633Z,99559.09
2023-08-02T03:42:51.801Z,99559.09
2023-08-02T03:45:18.931Z,99560.97
2023-08-02T03:47:45.981Z,99559.09
2023-08-02T03:50:12.920Z,99554.75
2023-08-02T03:52:40.037Z,99555.53
2023-08-02T03:55:07.482Z,99548.75
2023-08-02T03:57:34.478Z,99550.66
2023-08-02T04:00:01.381Z,99553.66
2023-08-02T04:02:28.452Z,99559.09
2023-08-02T04:04:55.428Z,99566.72
2023-08-02T04:07:22.947Z,99560.72
2023-08-02T04:09:50.050Z,99544.72
2023-08-02T04:12:19.019Z,99541.47
2023-08-02T04:14:45.936Z,99540.38
2023-08-02T04:17:12.960Z,99540.94
2023-08-02T04:19:39.981Z,99543.94
2023-08-02T04:22:07.008Z,99551.03
2023-08-02T04:24:34.623Z,99548.88
2023-08-02T04:27:01.629Z,99536.91
2023-08-02T04:29:28.555Z,99529.31
2023-08-02T04:31:55.608Z,99532.28
2023-08-02T04:34:22.754Z,99521.66
2023-08-02T04:36:49.693Z,99520.84
2023-08-02T04:39:16.806Z,99518.72
2023-08-02T04:41:43.893Z,99518.53
2023-08-02T04:44:10.866Z,99520.94
2023-08-02T04:46:37.967Z,99534.50
2023-08-02T04:49:04.900Z,99528.53
2023-08-02T04:51:33.051Z,99533.66
2023-08-02T04:54:00.241Z,99529.28
2023-08-02T04:56:27.267Z,99528.94
2023-08-02T04:58:54.235Z,99522.53
2023-08-02T05:01:21.310Z,99525.19
2023-08-02T05:03:48.443Z,99519.22
2023-08-02T05:06:15.538Z,99522.66
2023-08-02T05:08:42.817Z,99517.44
2023-08-02T05:11:09.936Z,99528.59
2023-08-02T05:13:37.164Z,99527.56
2023-08-02T05:16:04.398Z,99533.09
2023-08-02T05:18:31.377Z,99535.44
2023-08-02T05:21:00.032Z,99547.69
2023-08-02T05:23:27.121Z,99549.16
2023-08-02T05:25:56.966Z,99564.59
2023-08-02T05:28:23.939Z,99565.94
2023-08-02T05:30:50.964Z,99565.03
2023-08-02T05:33:18.079Z,99572.75
2023-08-02T05:35:45.050Z,99575.53
2023-08-02T05:38:12.321Z,99587.69
2023-08-02T05:40:39.251Z,99573.00
2023-08-02T05:43:07.557Z,99581.50
2023-08-02T05:45:35.240Z,99567.75
2023-08-02T05:48:02.550Z,99570.13
2023-08-02T05:50:30.406Z,99566.16
2023-08-02T05:52:57.389Z,99564.06
2023-08-02T05:55:24.284Z,99568.22
2023-08-02T05:57:51.247Z,99564.06
2023-08-02T06:00:18.422Z,99566.06
2023-08-02T06:02:45.503Z,99559.94
2023-08-02T06:05:12.510Z,99566.59
2023-08-02T06:07:39.637Z,99566.63
2023-08-02T06:10:06.929Z,99561.63
2023-08-02T06:12:33.886Z,99565.72
2023-08-02T06:15:00.901Z,99567.03
2023-08-02T06:17:28.064Z,99559.56
2023-08-02T06:19:55.142Z,99554.91
2023-08-02T06:22:22.129Z,99548.16
2023-08-02T06:24:49.149Z,99550.81
2023-08-02T06:27:16.093Z,99547.31
2023-08-02T06:29:43.041Z,99552.91
2023-08-02T06:32:10.146Z,99547.09
2023-08-02T06:34:37.047Z,99551.41
2023-08-02T06:37:04.176Z,99543.13
2023-08-02T06:39:32.921Z,99544.88
2023-08-02T06:42:00.089Z,99540.69
2023-08-02T06:44:27.570Z,99548.47
2023-08-02T06:46:54.566Z,99544.44
2023-08-02T06:49:21.556Z,99547.19
2023-08-02T06:51:48.586Z,99539.66
2023-08-02T06:54:15.564Z,99542.66
2023-08-02T06:56:43.115Z,99552.44
2023-08-02T06:59:10.124Z,99545.00
2023-08-02T07:01:37.294Z,99544.44
2023-08-02T07:04:04.481Z,99529.72
2023-08-02T07:06:31.599Z,99530.97
2023-08-02T07:08:58.576Z,99530.28
2023-08-02T07:11:35.814Z,99532.00
2023-08-02T07:14:03.969Z,99526.56
2023-08-02T07:16:31.091Z,99536.69
2023-08-02T07:18:58.179Z,99528.66
2023-08-02T07:21:25.220Z,99531.84
2023-08-02T07:23:53.064Z,99531.66
2023-08-02T07:26:20.277Z,99533.03
2023-08-02T07:28:47.252Z,99533.88
2023-08-02T07:31:14.390Z,99535.25
2023-08-02T07:33:42.035Z,99535.81
2023-08-02T07:36:18.808Z,99538.81
2023-08-02T07:38:46.389Z,99531.81
2023-08-02T07:41:13.920Z,99539.66
2023-08-02T07:43:41.058Z,99545.13
2023-08-02T07:46:16.983Z,99552.78
2023-08-02T07:48:44.305Z,99554.88
2023-08-02T07:51:11.282Z,99548.44
2023-08-02T07:53:38.316Z,99544.69
2023-08-02T07:56:06.105Z,99533.81
2023-08-02T07:58:33.141Z,99535.88
2023-08-02T08:01:10.193Z,99543.22
2023-08-02T08:03:38.207Z,99537.25
2023-08-02T08:06:17.005Z,99542.81
2023-08-02T08:08:44.516Z,99536.47
2023-08-02T08:11:11.686Z,99551.69
2023-08-02T08:13:38.780Z,99553.84
2023-08-02T08:16:06.092Z,99546.50
2023-08-02T08:18:33.978Z,99540.25
2023-08-02T08:21:06.155Z,99536.69
2023-08-02T08:23:33.654Z,99538.53
2023-08-02T08:26:00.653Z,99540.94
2023-08-02T08:28:27.735Z,99552.25
2023-08-02T08:31:02.019Z,99548.38
2023-08-02T08:33:30.135Z,99556.06
2023-08-02T08:35:57.138Z,99569.78
2023-08-02T08:38:24.239Z,99566.00
2023-08-02T08:40:52.301Z,99567.28
2023-08-02T08:43:20.884Z,99576.88
2023-08-02T08:45:48.707Z,99573.34
2023-08-02T08:48:16.000Z,99559.25
2023-08-02T08:50:45.829Z,99556.50
2023-08-02T08:53:18.730Z,99552.47
2023-08-02T08:55:51.008Z,99554.69
2023-08-02T08:58:18.241Z,99561.72
2023-08-02T09:00:49.059Z,99558.63
2023-08-02T09:03:16.966Z,99552.78
2023-08-02T09:05:44.530Z,99543.72
2023-08-02T09:08:11.618Z,99527.69
2023-08-02T09:10:39.810Z,99530.84
2023-08-02T09:13:07.126Z,99523.41
2023-08-02T09:15:34.142Z,99520.50
2023-08-02T09:18:01.435Z,99527.06
2023-08-02T09:20:28.966Z,99515.16
2023-08-02T09:22:56.079Z,99524.53
2023-08-02T09:25:30.312Z,99522.97
2023-08-02T09:28:00.352Z,99518.31
2023-08-02T09:30:27.400Z,99516.69
2023-08-02T09:33:04.232Z,99520.50
2023-08-02T09:35:54.529Z,99510.59
2023-08-02T09:38:21.616Z,99509.00
2023-08-02T09:43:20.362Z,99503.44
2023-08-02T09:45:47.366Z,99506.91
2023-08-02T09:48:14.413Z,99502.72
2023-08-02T09:51:05.194Z,99492.00
2023-08-02T09:53:32.982Z,99499.56
2023-08-02T09:56:02.010Z,99494.72
2023-08-02T09:58:31.666Z,99495.25
2023-08-02T10:01:00.079Z,99484.97
2023-08-02T10:03:29.074Z,99479.00
2023-08-02T10:05:59.587Z,99473.53
2023-08-02T10:08:31.328Z,99468.53
2023-08-02T10:11:01.539Z,99460.78
2023-08-02T10:13:34.203Z,99464.16
2023-08-02T10:16:02.238Z,99466.06
2023-08-02T10:18:29.879Z,99470.91
2023-08-02T10:20:58.397Z,99468.22
2023-08-02T10:23:27.669Z,99478.66
2023-08-02T10:25:55.729Z,99478.34
2023-08-02T10:28:23.506Z,99476.13
2023-08-02T10:30:51.200Z,99463.19
2023-08-02T10:33:22.782Z,99475.00
2023-08-02T10:36:04.417Z,99457.19
2023-08-02T10:38:44.859Z,99451.03
2023-08-02T10:41:16.465Z,99450.25
2023-08-02T10:43:55.280Z,99434.19
2023-08-02T10:46:26.198Z,99439.03
2023-08-02T10:48:53.742Z,99428.69
2023-08-02T10:51:40.174Z,99424.66
2023-08-02T10:54:14.810Z,99409.97
2023-08-02T10:56:53.985Z,99419.31
2023-08-02T10:59:23.923Z,99418.88
2023-08-02T11:02:09.876Z,99418.66
2023-08-02T11:04:39.249Z,99414.50
2023-08-02T11:07:20.328Z,99414.28
2023-08-02T11:09:48.535Z,99409.56
2023-08-02T11:12:20.175Z,99420.75
2023-08-02T11:14:50.911Z,99416.34
2023-08-02T11:22:27.303Z,99415.06
2023-08-02T11:24:57.611Z,99408.09
2023-08-02T11:27:53.680Z,99412.22
2023-08-02T11:30:15.004Z,99405.63
2023-08-02T11:32:46.442Z,99404.59
2023-08-02T11:35:21.602Z,99411.06
2023-08-02T11:37:49.002Z,99413.78
2023-08-02T11:42:53.325Z,99396.97
2023-08-02T11:45:35.972Z,99391.47
2023-08-02T11:50:34.683Z,99385.56
2023-08-02T11:53:11.765Z,99381.25
2023-08-02T11:55:39.858Z,99367.81
2023-08-02T11:58:07.968Z,99366.06
2023-08-02T12:00:37.198Z,99361.84
2023-08-02T12:03:15.716Z,99351.50
2023-08-02T12:05:44.786Z,99353.84
2023-08-02T12:08:20.700Z,99331.47
2023-08-02T12:10:52.538Z,99334.56
2023-08-02T12:13:19.715Z,99334.41
2023-08-02T12:16:00.377Z,99348.75
2023-08-02T12:18:27.530Z,99334.69
2023-08-02T12:20:55.039Z,99327.22
2023-08-02T12:23:32.756Z,99317.75
2023-08-02T12:25:59.907Z,99313.34
2023-08-02T12:28:26.958Z,99312.69
2023-08-02T12:31:06.608Z,99316.16
2023-08-02T12:33:34.049Z,99320.56
2023-08-02T12:36:01.362Z,99311.66
2023-08-02T12:38:31.406Z,99316.41
2023-08-02T12:40:59.612Z,99323.81
2023-08-02T12:43:28.066Z,99324.34
2023-08-02T12:45:55.469Z,99323.16
2023-08-02T12:48:22.464Z,99312.50
2023-08-02T12:50:49.603Z,99306.63
2023-08-02T12:53:16.551Z,99300.22
2023-08-02T12:55:44.041Z,99304.16
2023-08-02T12:58:11.528Z,99296.13
2023-08-02T13:00:38.531Z,99294.38
2023-08-02T13:03:05.600Z,99302.19
2023-08-02T13:05:32.573Z,99303.69
2023-08-02T13:07:59.679Z,99297.84
2023-08-02T13:10:28.132Z,99292.78
2023-08-02T13:12:55.299Z,99293.91
2023-08-02T13:15:22.369Z,99287.94
2023-08-02T13:17:49.878Z,99276.66
2023-08-02T13:20:17.125Z,99282.41
2023-08-02T13:22:44.817Z,99279.41
2023-08-02T13:25:11.829Z,99275.63
2023-08-02T13:27:38.888Z,99275.94
2023-08-02T13:30:06.600Z,99274.25
2023-08-02T13:32:35.893Z,99268.28
2023-08-02T13:35:04.905Z,99262.09
2023-08-02T13:37:32.276Z,99264.72
2023-08-02T13:39:59.287Z,99257.00
2023-08-02T13:42:26.828Z,99265.16
2023-08-02T13:44:55.856Z,99257.81
2023-08-02T13:47:23.310Z,99251.34
2023-08-02T13:49:50.791Z,99257.03
2023-08-02T13:52:18.827Z,99259.78
2023-08-02T13:54:45.809Z,99257.81
2023-08-02T13:57:12.701Z,99253.09
2023-08-02T13:59:40.800Z,99241.94
2023-08-02T14:02:08.928Z,99248.31
2023-08-02T14:04:36.108Z,99246.03
2023-08-02T14:07:03.321Z,99243.03
2023-08-02T14:09:30.578Z,99238.06
2023-08-02T14:11:57.628Z,99236.78
2023-08-02T14:14:24.782Z,99234.59
2023-08-02T14:16:51.736Z,99236.44
2023-08-02T14:19:18.731Z,99234.50
2023-08-02T14:21:45.665Z,99240.69
2023-08-02T14:24:12.849Z,99227.50
2023-08-02T14:26:39.779Z,99236.69
2023-08-02T14:29:06.797Z,99226.88
2023-08-02T14:31:33.775Z,99221.69
2023-08-02T14:34:00.813Z,99225.25
2023-08-02T14:36:27.851Z,99214.22
2023-08-02T14:38:54.844Z,99218.88
2023-08-02T14:41:21.888Z,99215.19
2023-08-02T14:43:48.900Z,99206.28
2023-08-02T14:46:15.949Z,99210.88
2023-08-02T14:48:43.018Z,99212.84
2023-08-02T14:51:10.021Z,99210.72
2023-08-02T14:53:37.151Z,99205.53
2023-08-02T14:56:04.327Z,99203.91
2023-08-02T14:58:31.409Z,99203.03
2023-08-02T15:00:58.684Z,99201.94
2023-08-02T15:03:25.797Z,99193.47
2023-08-02T15:05:53.053Z,99205.66
2023-08-02T15:08:20.118Z,99196.50
2023-08-02T15:10:47.765Z,99195.81
2023-08-02T15:13:17.489Z,99199.03
2023-08-02T15:15:44.426Z,99197.34
2023-08-02T15:18:11.551Z,99191.13
2023-08-02T15:20:38.529Z,99187.59
2023-08-02T15:23:05.499Z,99189.00
2023-08-02T15:25:33.184Z,99190.38
2023-08-02T15:28:00.391Z,99176.38
2023-08-02T15:30:27.322Z,99183.03
2023-08-02T15:32:54.334Z,99182.28
2023-08-02T15:35:21.467Z,99175.81
2023-08-02T15:37:49.422Z,99171.63
2023-08-02T15:40:19.832Z,99165.94
2023-08-02T15:42:47.307Z,99161.06
2023-08-02T15:45:14.843Z,99156.69
2023-08-02T15:47:41.913Z,99158.69
2023-08-02T15:50:09.563Z,99148.28
2023-08-02T15:52:36.619Z,99156.38
2023-08-02T15:55:04.229Z,99149.09
2023-08-02T15:57:31.245Z,99141.34
2023-08-02T15:59:58.168Z,99142.50
2023-08-02T16:02:25.262Z,99140.28
2023-08-02T16:04:52.505Z,99142.91
2023-08-02T16:07:21.817Z,99141.59
2023-08-02T16:09:48.787Z,99146.06
2023-08-02T16:12:18.028Z,99147.16
2023-08-02T16:14:46.668Z,99134.44
2023-08-02T16:17:13.688Z,99128.09
2023-08-02T16:19:41.740Z,99131.19
2023-08-02T16:22:08.671Z,99127.56
2023-08-02T16:24:35.662Z,99131.97
2023-08-02T16:27:02.647Z,99120.69
2023-08-02T16:29:29.718Z,99119.69
2023-08-02T16:31:56.642Z,99129.50
2023-08-02T16:34:23.774Z,99134.72
2023-08-02T16:36:50.775Z,99132.03
2023-08-02T16:39:18.033Z,99137.81
2023-08-02T16:41:45.288Z,99148.63
2023-08-02T16:44:12.539Z,99146.31
2023-08-02T16:46:39.529Z,99143.53
2023-08-02T16:49:07.669Z,99140.19
2023-08-02T16:51:34.607Z,99141.03
2023-08-02T16:54:01.547Z,99144.66
2023-08-02T16:56:28.661Z,99149.47
2023-08-02T16:58:55.626Z,99151.28
2023-08-02T17:01:22.600Z,99152.56
2023-08-02T17:03:50.209Z,99146.72
2023-08-02T17:06:17.425Z,99147.75
2023-08-02T17:08:44.592Z,99146.69
2023-08-02T17:11:11.554Z,99140.34
2023-08-02T17:13:38.941Z,99146.69
2023-08-02T17:16:06.613Z,99152.69
2023-08-02T17:18:33.862Z,99153.09
2023-08-02T17:21:01.058Z,99163.16
2023-08-02T17:23:29.332Z,99151.88
2023-08-02T17:25:56.308Z,99149.84
2023-08-02T17:28:23.336Z,99147.41
2023-08-02T17:30:50.265Z,99154.50
2023-08-02T17:33:17.367Z,99148.84
2023-08-02T17:35:44.346Z,99147.72
2023-08-02T17:38:11.405Z,99149.44
2023-08-02T17:40:38.464Z,99151.00
2023-08-02T17:43:05.389Z,99160.75
2023-08-02T17:45:38.041Z,99162.69
2023-08-02T17:48:11.300Z,99163.88
2023-08-02T17:50:38.646Z,99169.16
2023-08-02T17:53:05.926Z,99163.84
2023-08-02T17:55:33.071Z,99170.75
2023-08-02T17:58:00.122Z,99174.66
2023-08-02T18:00:29.788Z,99176.22
2023-08-02T18:02:56.841Z,99174.09
2023-08-02T18:05:23.908Z,99169.69
2023-08-02T18:07:52.853Z,99172.38
2023-08-02T18:10:19.845Z,99167.91
2023-08-02T18:12:47.716Z,99163.50
2023-08-02T18:15:14.911Z,99162.88
2023-08-02T18:17:41.980Z,99160.66
2023-08-02T18:20:09.559Z,99162.88
2023-08-02T18:22:36.476Z,99168.06
2023-08-02T18:25:03.475Z,99163.63
2023-08-02T18:27:30.420Z,99165.41
2023-08-02T18:29:59.053Z,99161.25
2023-08-02T18:32:27.778Z,99166.97
2023-08-02T18:34:54.802Z,99169.78
2023-08-02T18:37:21.912Z,99168.88
2023-08-02T18:39:48.934Z,99170.53
2023-08-02T18:42:15.965Z,99171.53
2023-08-02T18:44:44.003Z,99187.41
2023-08-02T18:47:11.083Z,99187.28
2023-08-02T18:49:37.973Z,99190.69
2023-08-02T18:52:06.697Z,99182.63
2023-08-02T18:54:33.696Z,99201.38
2023-08-02T18:57:02.044Z,99195.41
2023-08-02T18:59:29.164Z,99194.44
2023-08-02T19:01:56.262Z,99194.31
2023-08-02T19:04:23.391Z,99206.91
2023-08-02T19:06:50.523Z,99205.31
2023-08-02T19:09:17.591Z,99201.16
2023-08-02T19:11:44.956Z,99201.16
2023-08-02T19:14:12.639Z,99203.91
2023-08-02T19:16:39.632Z,99199.88
2023-08-02T19:19:21.271Z,99198.09
2023-08-02T19:21:50.988Z,99206.69
2023-08-02T19:24:18.594Z,99203.59
2023-08-02T19:26:46.757Z,99191.66
2023-08-02T19:29:21.936Z,99199.25
2023-08-02T19:31:49.257Z,99197.59
2023-08-02T19:34:16.270Z,99197.78
2023-08-02T19:36:46.640Z,99205.88
2023-08-02T19:39:14.185Z,99200.72
2023-08-02T19:41:42.947Z,99206.53
2023-08-02T19:44:10.198Z,99207.50
2023-08-02T19:46:37.175Z,99203.63
2023-08-02T19:49:04.260Z,99194.09
2023-08-02T19:51:33.089Z,99195.38
2023-08-02T19:54:00.128Z,99197.97
2023-08-02T19:56:27.125Z,99190.06
2023-08-02T19:58:59.122Z,99197.47
2023-08-02T20:01:28.698Z,99194.09
2023-08-02T20:03:57.590Z,99193.44
2023-08-02T20:06:27.244Z,99199.25
2023-08-02T20:08:54.832Z,99213.72
2023-08-02T20:11:23.029Z,99203.72
2023-08-02T20:13:52.582Z,99208.25
2023-08-02T20:16:24.559Z,99201.63
2023-08-02T20:18:52.941Z,99196.28
2023-08-02T20:21:23.131Z,99187.03
2023-08-02T20:24:03.805Z,99196.50
2023-08-02T20:26:31.186Z,99194.25
2023-08-02T20:28:58.341Z,99195.66
2023-08-02T20:31:29.349Z,99196.28
2023-08-02T20:33:57.429Z,99197.94
2023-08-02T20:36:25.170Z,99194.84
2023-08-02T20:38:54.084Z,99199.25
2023-08-02T20:41:24.868Z,99194.09
2023-08-02T20:43:54.520Z,99198.44
2023-08-02T20:46:26.895Z,99196.78
2023-08-02T20:48:59.239Z,99195.34
2023-08-02T20:51:30.198Z,99202.41
2023-08-02T20:53:58.860Z,99200.09
2023-08-02T20:56:26.514Z,99204.56
2023-08-02T20:58:53.545Z,99202.53
2023-08-02T21:01:20.659Z,99199.91
2023-08-02T21:03:48.493Z,99190.56
2023-08-02T21:06:17.178Z,99195.06
2023-08-02T21:08:47.120Z,99201.97
2023-08-02T21:11:14.459Z,99202.16
2023-08-02T21:13:41.592Z,99201.41
2023-08-02T21:16:11.846Z,99206.97
2023-08-02T21:18:42.021Z,99212.41
2023-08-02T21:21:09.981Z,99211.22
2023-08-02T21:23:43.796Z,99217.44
2023-08-02T21:26:16.659Z,99206.28
2023-08-02T21:28:44.279Z,99210.16
2023-08-02T21:31:14.948Z,99216.28
2023-08-02T21:33:42.450Z,99206.25
2023-08-02T21:36:13.161Z,99212.41
2023-08-02T21:38:40.655Z,99202.91
2023-08-02T21:41:09.846Z,99210.34
2023-08-02T21:43:38.423Z,99203.19
2023-08-02T21:46:09.764Z,99198.16
2023-08-02T21:48:48.187Z,99191.97
2023-08-02T21:51:16.664Z,99197.34
2023-08-02T21:53:48.224Z,99210.34
2023-08-02T21:56:15.417Z,99195.69
2023-08-02T21:58:48.423Z,99200.94
2023-08-02T22:01:21.111Z,99183.84
2023-08-02T22:03:49.346Z,99192.47
2023-08-02T22:06:23.814Z,99184.28
2023-08-02T22:08:51.503Z,99182.91
2023-08-02T22:11:19.266Z,99180.31
2023-08-02T22:13:48.124Z,99182.34
2023-08-02T22:16:16.988Z,99184.97
2023-08-02T22:18:44.328Z,99182.66
2023-08-02T22:21:13.673Z,99184.19
2023-08-02T22:23:43.593Z,99181.44
2023-08-02T22:26:11.825Z,99191.19
2023-08-02T22:28:38.992Z,99191.47
2023-08-02T22:31:06.010Z,99183.66
2023-08-02T22:33:32.964Z,99181.66
2023-08-02T22:36:00.484Z,99177.53
2023-08-02T22:38:42.394Z,99177.34
2023-08-02T22:41:14.838Z,99180.81
2023-08-02T22:43:41.899Z,99187.88
2023-08-02T22:46:09.058Z,99183.31
2023-08-02T22:51:06.912Z,99186.06
2023-08-02T22:53:34.035Z,99185.66
2023-08-02T22:56:03.500Z,99191.75
2023-08-02T22:58:30.465Z,99185.97
2023-08-02T23:00:57.425Z,99190.53
2023-08-02T23:03:37.746Z,99188.28
2023-08-02T23:06:05.916Z,99189.13
2023-08-02T23:08:35.360Z,99199.22
2023-08-02T23:11:02.721Z,99194.94
2023-08-02T23:13:30.001Z,99182.28
2023-08-02T23:15:57.004Z,99196.38
2023-08-02T23:18:24.963Z,99199.28
2023-08-02T23:20:52.509Z,99199.59
2023-08-02T23:23:28.438Z,99199.22
2023-08-02T23:26:04.591Z,99199.84
2023-08-02T23:28:33.154Z,99193.06
2023-08-02T23:31:13.641Z,99192.53
2023-08-02T23:33:40.750Z,99189.31
2023-08-02T23:36:07.749Z,99198.00
2023-08-02T23:38:34.865Z,99207.41
2023-08-02T23:41:01.783Z,99197.28
2023-08-02T23:43:28.761Z,99196.03
2023-08-02T23:45:55.753Z,99189.25
2023-08-02T23:48:23.753Z,99194.53
2023-08-02T23:50:50.707Z,99190.00
2023-08-02T23:53:18.220Z,99184.34
2023-08-02T23:55:45.174Z,99180.47
2023-08-02T23:58:12.112Z,99174.63
